Time;durP1;ratioP1;P1;durP2;ratioP2;P2;SDS_P1;SDS_P2;PMS_P1;PMS_P2;Temp;Humidity;BMP_temperature;BMP_pressure;BME280_temperature;BME280_humidity;BME280_pressure;Samples;Min_cycle;Max_cycle;Signal;HPM_P1;HPM_P2
2023/06/29 00:01:05;;;;;;;3.95;3.53;;;;;;;14.20;100.00;64449.19;5071272;28;20716;-56
2023/06/29 00:03:34;;;;;;;4.40;3.42;;;;;;;14.09;100.00;64437.13;5071409;28;20208;-56
2023/06/29 00:06:01;;;;;;;2.95;2.72;;;;;;;14.24;100.00;64451.06;5053221;28;20690;-59
2023/06/29 00:08:29;;;;;;;3.72;3.10;;;;;;;14.16;100.00;64446.78;5071273;28;20220;-56
2023/06/29 00:10:56;;;;;;;4.43;3.20;;;;;;;14.17;100.00;64445.91;5070811;28;20227;-56
2023/06/29 00:13:22;;;;;;;7.80;3.30;;;;;;;14.15;100.00;64445.69;5071266;28;20231;-60
2023/06/29 00:15:48;;;;;;;4.63;3.10;;;;;;;14.22;100.00;64453.41;5071059;28;20575;-58
2023/06/29 00:18:15;;;;;;;4.63;3.45;;;;;;;14.20;100.00;64451.19;5070871;28;20287;-59
2023/06/29 00:20:41;;;;;;;4.20;3.72;;;;;;;14.36;100.00;64466.25;5070882;28;20205;-59
2023/06/29 00:23:07;;;;;;;5.25;3.80;;;;;;;14.35;100.00;64465.16;5071277;28;20201;-57
2023/06/29 00:25:33;;;;;;;4.35;3.72;;;;;;;14.25;100.00;64454.16;5071083;28;20337;-55
2023/06/29 00:27:58;;;;;;;6.20;4.53;;;;;;;14.13;100.00;64440.97;5071080;28;20229;-54
2023/06/29 00:30:24;;;;;;;4.90;4.22;;;;;;;14.03;100.00;64430.53;5070873;28;20645;-56
2023/06/29 00:32:49;;;;;;;5.20;4.70;;;;;;;13.89;100.00;64415.16;5070934;28;20216;-58
2023/06/29 00:35:15;;;;;;;5.40;4.63;;;;;;;13.92;100.00;64417.88;5070954;28;20319;-59
2023/06/29 00:37:42;;;;;;;6.10;5.22;;;;;;;13.94;100.00;64422.63;5070653;28;20209;-57
2023/06/29 00:40:09;;;;;;;9.35;5.20;;;;;;;13.89;100.00;64417.69;5052743;28;20640;-58
2023/06/29 00:42:35;;;;;;;5.50;5.00;;;;;;;14.01;100.00;64428.34;5070762;28;20262;-55
2023/06/29 00:45:02;;;;;;;6.32;5.15;;;;;;;13.96;100.00;64424.81;5070773;28;20346;-55
2023/06/29 00:47:28;;;;;;;7.15;5.65;;;;;;;13.96;100.00;64422.28;5070786;28;20279;-55
2023/06/29 00:49:54;;;;;;;5.40;4.90;;;;;;;14.06;100.00;64433.81;5070514;28;20327;-54
2023/06/29 00:52:20;;;;;;;6.55;5.07;;;;;;;14.03;100.00;64429.97;5070627;28;20260;-55
2023/06/29 00:54:46;;;;;;;6.53;5.35;;;;;;;14.01;100.00;64430.31;5070660;28;20291;-54
2023/06/29 00:57:11;;;;;;;7.47;5.57;;;;;;;13.98;100.00;64425.03;5070304;28;20216;-55
2023/06/29 00:59:37;;;;;;;7.35;5.50;;;;;;;14.16;100.00;64447.34;5070469;28;20208;-54
2023/06/29 01:02:02;;;;;;;5.50;4.90;;;;;;;14.08;100.00;64432.94;5070516;28;20210;-56
2023/06/29 01:04:28;;;;;;;5.63;5.00;;;;;;;14.00;100.00;64429.22;5070595;28;20285;-55
2023/06/29 01:07:15;;;;;;;6.30;5.22;;;;;;;14.08;100.00;64436.00;5070580;28;20235;-59
2023/06/29 01:09:44;;;;;;;5.88;5.28;;;;;;;14.06;100.00;64433.25;5070330;28;20705;-55
2023/06/29 01:12:13;;;;;;;6.43;5.07;;;;;;;14.04;100.00;64431.63;5070333;28;20220;-57
2023/06/29 01:14:39;;;;;;;5.90;4.82;;;;;;;13.93;100.00;64419.00;5070279;28;20255;-60
2023/06/29 01:17:07;;;;;;;6.53;5.82;;;;;;;13.96;100.00;64422.28;5070264;28;20220;-60
2023/06/29 01:19:33;;;;;;;7.05;5.63;;;;;;;14.00;100.00;64426.69;5070221;28;20240;-60
2023/06/29 01:22:14;;;;;;;5.90;4.57;;;;;;;13.88;100.00;64413.50;5071639;28;20200;-55
2023/06/29 01:24:43;;;;;;;6.40;5.45;;;;;;;13.76;100.00;64403.41;5073646;28;20236;-60
2023/06/29 01:27:09;;;;;;;6.97;6.00;;;;;;;13.79;100.00;64406.16;5073889;28;20573;-56
2023/06/29 01:29:35;;;;;;;7.45;5.70;;;;;;;13.76;100.00;64400.31;5073640;28;20207;-57
2023/06/29 01:32:03;;;;;;;7.57;5.80;;;;;;;13.72;100.00;64395.94;5073818;28;20201;-57
2023/06/29 01:34:31;;;;;;;10.75;6.25;;;;;;;13.75;100.00;64399.22;5073681;28;20267;-54
2023/06/29 01:37:09;;;;;;;7.88;5.82;;;;;;;13.71;100.00;64394.84;5073534;28;20204;-55
2023/06/29 01:39:47;;;;;;;7.25;5.93;;;;;;;13.73;100.00;64400.13;5073392;28;20212;-57
2023/06/29 01:42:13;;;;;;;10.63;6.35;;;;;;;13.61;100.00;64388.94;5073406;28;20201;-57
2023/06/29 01:44:39;;;;;;;7.22;6.43;;;;;;;13.59;100.00;64384.75;5073342;28;20313;-54
2023/06/29 01:47:08;;;;;;;7.00;6.03;;;;;;;13.51;100.00;64372.88;5073688;28;20201;-55
2023/06/29 01:49:35;;;;;;;7.95;6.30;;;;;;;13.52;100.00;64376.50;5073469;28;20652;-55
2023/06/29 01:52:01;;;;;;;7.32;6.30;;;;;;;13.41;100.00;64363.00;5073510;28;20185;-59
2023/06/29 01:54:27;;;;;;;7.85;6.82;;;;;;;13.43;100.00;64365.19;5073467;28;20295;-55
2023/06/29 01:56:52;;;;;;;7.65;6.00;;;;;;;13.56;100.00;64378.38;5073081;28;20430;-56
2023/06/29 01:59:18;;;;;;;9.98;6.95;;;;;;;13.55;100.00;64377.81;5073331;28;20690;-56
2023/06/29 02:01:43;;;;;;;8.75;6.97;;;;;;;13.48;100.00;64372.66;5073236;28;20345;-58
2023/06/29 02:04:08;;;;;;;9.40;7.07;;;;;;;13.55;100.00;64385.44;5073184;28;20217;-56
2023/06/29 02:06:34;;;;;;;9.40;6.47;;;;;;;13.50;100.00;64374.88;5073095;28;20569;-57
2023/06/29 02:09:00;;;;;;;7.17;6.20;;;;;;;13.51;100.00;64372.88;5073053;28;20595;-57
2023/06/29 02:11:26;;;;;;;9.20;7.25;;;;;;;13.50;100.00;64369.78;5073008;28;20565;-56
2023/06/29 02:13:51;;;;;;;8.88;6.82;;;;;;;13.55;100.00;64379.81;5073338;28;20755;-55
2023/06/29 02:16:16;;;;;;;8.70;7.13;;;;;;;13.49;100.00;64374.31;5072868;28;20292;-53
2023/06/29 02:18:42;;;;;;;8.73;6.90;;;;;;;13.43;100.00;64364.66;5073150;28;20217;-55
2023/06/29 02:21:07;;;;;;;9.20;6.57;;;;;;;13.44;100.00;64366.28;5073130;28;20227;-59
2023/06/29 02:23:33;;;;;;;7.63;6.82;;;;;;;13.40;100.00;64361.91;5072977;28;20227;-56
2023/06/29 02:25:58;;;;;;;7.90;6.82;;;;;;;13.26;100.00;64348.50;5073200;28;20698;-57
2023/06/29 02:28:24;;;;;;;9.77;7.87;;;;;;;13.13;100.00;64334.78;5072832;28;20224;-59
2023/06/29 02:30:49;;;;;;;9.57;7.30;;;;;;;13.14;100.00;64335.34;5072635;28;20216;-57
2023/06/29 02:33:14;;;;;;;7.40;6.57;;;;;;;13.07;100.00;64325.69;5072662;28;20289;-54
2023/06/29 02:35:40;;;;;;;9.05;7.30;;;;;;;13.10;100.00;64330.97;5072627;28;20250;-56
2023/06/29 02:38:06;;;;;;;8.23;6.70;;;;;;;13.09;100.00;64332.94;5072985;28;20207;-56
2023/06/29 02:40:31;;;;;;;8.20;6.83;;;;;;;13.15;100.00;64334.47;5072757;28;20196;-59
2023/06/29 02:42:56;;;;;;;8.63;6.88;;;;;;;13.08;100.00;64326.78;5072734;28;20650;-59
2023/06/29 02:45:22;;;;;;;8.27;6.97;;;;;;;13.00;100.00;64317.44;5072675;28;20187;-54
2023/06/29 02:47:47;;;;;;;8.20;6.85;;;;;;;13.04;100.00;64324.94;5072596;28;20261;-59
2023/06/29 02:50:13;;;;;;;9.15;6.68;;;;;;;13.01;100.00;64321.59;5072443;28;20217;-56
2023/06/29 02:52:38;;;;;;;7.93;6.80;;;;;;;13.05;100.00;64323.47;5054345;28;20217;-56
2023/06/29 02:55:04;;;;;;;7.80;6.45;;;;;;;13.10;100.00;64331.50;5072375;28;20694;-55
2023/06/29 02:57:29;;;;;;;7.78;6.90;;;;;;;13.05;100.00;64326.00;5072652;28;20212;-56
2023/06/29 02:59:55;;;;;;;8.60;6.70;;;;;;;13.04;100.00;64322.41;5072290;28;20209;-55
2023/06/29 03:02:20;;;;;;;9.80;7.28;;;;;;;13.01;100.00;64321.59;5072266;28;20208;-58
2023/06/29 03:04:46;;;;;;;8.90;6.95;;;;;;;13.02;100.00;64319.63;5072186;28;20208;-54
2023/06/29 03:07:11;;;;;;;10.50;7.30;;;;;;;13.01;100.00;64321.59;5072093;28;20201;-56
2023/06/29 03:09:36;;;;;;;8.88;7.30;;;;;;;12.95;100.00;64314.50;5071956;28;20260;-58
2023/06/29 03:12:02;;;;;;;8.35;7.20;;;;;;;12.91;100.00;64308.09;5071958;28;20251;-57
2023/06/29 03:14:27;;;;;;;9.03;7.37;;;;;;;12.95;100.00;64311.97;5071948;28;20262;-56
2023/06/29 03:16:53;;;;;;;9.57;7.55;;;;;;;12.99;100.00;64321.94;5072312;28;20185;-56
2023/06/29 03:19:18;;;;;;;10.48;8.20;;;;;;;13.79;100.00;64406.16;5071907;28;20302;-57
2023/06/29 03:21:44;;;;;;;8.38;6.50;;;;;;;13.62;100.00;64385.50;5072013;28;20193;-55
2023/06/29 03:24:09;;;;;;;9.57;7.27;;;;;;;13.38;100.00;64362.25;5072083;28;20213;-59
2023/06/29 03:26:34;;;;;;;8.13;6.82;;;;;;;13.31;100.00;64354.56;5053873;28;20192;-55
2023/06/29 03:29:00;;;;;;;10.30;7.13;;;;;;;13.15;100.00;64337.00;5071771;28;20220;-55
2023/06/29 03:31:25;;;;;;;7.97;6.88;;;;;;;13.15;100.00;64337.00;5071646;28;20606;-57
2023/06/29 03:33:51;;;;;;;8.95;7.53;;;;;;;13.21;100.00;64343.56;5071774;28;20716;-56
2023/06/29 03:36:19;;;;;;;8.77;7.23;;;;;;;13.26;100.00;64349.06;5071681;28;20223;-56
2023/06/29 03:38:44;;;;;;;9.32;7.18;;;;;;;13.29;100.00;64351.81;5053825;28;20216;-55
2023/06/29 03:41:16;;;;;;;7.87;7.07;;;;;;;13.21;100.00;64340.50;5071531;28;20199;-54
2023/06/29 03:43:42;;;;;;;10.40;8.07;;;;;;;13.22;100.00;64344.13;5071361;28;20219;-55
2023/06/29 03:46:07;;;;;;;10.75;7.53;;;;;;;13.19;100.00;64338.84;5071190;28;20283;-56
2023/06/29 03:48:33;;;;;;;11.60;8.65;;;;;;;13.16;100.00;64335.56;5071641;28;20232;-57
2023/06/29 03:50:58;;;;;;;10.57;7.63;;;;;;;13.29;100.00;64349.81;5071426;28;20254;-60
2023/06/29 03:53:24;;;;;;;11.88;9.32;;;;;;;13.21;100.00;64340.50;5071575;28;20216;-59
2023/06/29 03:55:49;;;;;;;10.10;8.07;;;;;;;13.18;100.00;64337.22;5071254;28;20205;-55
2023/06/29 03:58:15;;;;;;;9.60;8.37;;;;;;;13.05;100.00;64323.47;5071210;28;20311;-55
2023/06/29 04:00:41;;;;;;;10.03;8.27;;;;;;;13.13;100.00;64334.25;5053505;28;20209;-56
2023/06/29 04:03:07;;;;;;;12.73;9.93;;;;;;;13.15;100.00;64336.47;5053300;28;20670;-56
2023/06/29 04:05:32;;;;;;;11.98;8.98;;;;;;;13.19;100.00;64338.84;5071243;28;20222;-55
2023/06/29 04:08:04;;;;;;;15.10;9.75;;;;;;;13.22;100.00;64344.13;5053101;28;20205;-56
2023/06/29 04:10:30;;;;;;;13.23;9.57;;;;;;;13.19;100.00;64341.38;5070947;28;20765;-55
2023/06/29 04:12:55;;;;;;;12.23;8.70;;;;;;;13.23;100.00;64342.72;5053199;28;20196;-55
2023/06/29 04:15:20;;;;;;;13.27;9.70;;;;;;;13.26;100.00;64348.50;5070870;28;20203;-57
2023/06/29 04:17:53;;;;;;;12.50;9.32;;;;;;;13.28;100.00;64350.72;5071336;28;20189;-59
2023/06/29 04:20:19;;;;;;;10.23;8.75;;;;;;;13.16;100.00;64340.63;5071110;28;20220;-55
2023/06/29 04:22:44;;;;;;;12.30;8.93;;;;;;;13.23;100.00;64345.78;5070961;28;20193;-57
2023/06/29 04:25:11;;;;;;;10.37;9.27;;;;;;;13.22;100.00;64339.63;5071055;28;20274;-58
2023/06/29 04:27:36;;;;;;;13.70;10.00;;;;;;;13.24;100.00;64343.78;5053401;28;20243;-57
2023/06/29 04:30:05;;;;;;;12.90;9.67;;;;;;;13.24;100.00;64343.78;5070842;28;20636;-58
2023/06/29 04:32:31;;;;;;;12.23;9.63;;;;;;;13.36;100.00;64359.50;5071108;28;20292;-55
2023/06/29 04:34:57;;;;;;;16.93;10.00;;;;;;;13.34;100.00;64357.84;5070818;28;20295;-59
2023/06/29 04:37:22;;;;;;;12.10;10.02;;;;;;;13.31;100.00;64354.56;5070788;28;20208;-60
2023/06/29 04:39:48;;;;;;;11.23;10.02;;;;;;;13.36;100.00;64357.53;5070706;28;20251;-54
2023/06/29 04:42:16;;;;;;;12.93;10.70;;;;;;;13.38;100.00;64362.25;5070839;28;20287;-59
2023/06/29 04:44:44;;;;;;;14.43;11.65;;;;;;;14.48;100.00;64481.97;5070582;28;20232;-55
2023/06/29 04:47:10;;;;;;;13.55;10.40;;;;;;;14.81;100.00;64518.25;5070665;28;21366;-57
2023/06/29 04:49:40;;;;;;;14.00;10.18;;;;;;;15.51;100.00;64591.59;5070410;28;20269;-56
2023/06/29 04:52:10;;;;;;;12.05;10.30;;;;;;;15.23;100.00;64560.78;5052507;28;20226;-59
2023/06/29 04:54:35;;;;;;;12.02;10.13;;;;;;;15.18;100.00;64555.28;5070600;28;20204;-56
2023/06/29 04:57:01;;;;;;;11.05;8.70;;;;;;;15.89;100.00;64633.97;5072223;28;20192;-55
2023/06/29 04:59:28;;;;;;;12.52;8.57;;;;;;;16.20;100.00;64669.50;5074116;28;20216;-59
2023/06/29 05:01:54;;;;;;;14.77;8.90;;;;;;;16.25;100.00;64670.47;5073876;28;20288;-60
2023/06/29 05:04:19;;;;;;;9.25;8.25;;;;;;;16.64;100.00;64715.97;5073983;28;20640;-60
2023/06/29 05:06:45;;;;;;;11.60;8.60;;;;;;;16.95;100.00;64749.03;5073951;28;20220;-56
2023/06/29 05:09:10;;;;;;;11.32;8.98;;;;;;;16.77;100.00;64730.28;5055888;28;20284;-60
2023/06/29 05:11:36;;;;;;;12.95;8.80;;;;;;;17.12;100.00;64765.19;5073558;28;20212;-59
2023/06/29 05:14:01;;;;;;;9.93;8.18;;;;;;;17.17;100.00;64770.72;5055848;28;20205;-58
2023/06/29 05:16:26;;;;;;;27.83;16.70;;;;;;;17.63;100.00;64820.84;5073731;28;20231;-56
2023/06/29 05:18:52;;;;;;;18.02;12.50;;;;;;;17.57;100.00;64814.81;5074040;28;20213;-57
2023/06/29 05:21:18;;;;;;;18.33;11.90;;;;;;;17.57;100.00;64817.88;5073807;28;20204;-58
2023/06/29 05:23:43;;;;;;;10.35;8.43;;;;;;;17.28;100.00;64787.91;5073837;28;20209;-58
2023/06/29 05:26:09;;;;;;;11.77;9.55;;;;;;;16.82;100.00;64732.72;5073727;28;20585;-55
2023/06/29 05:28:35;;;;;;;11.27;9.68;;;;;;;17.15;100.00;64769.03;5055796;28;20215;-58
2023/06/29 05:31:00;;;;;;;12.57;9.32;;;;;;;17.19;100.00;64772.91;5073363;28;20303;-55
2023/06/29 05:33:27;;;;;;;12.32;9.32;;;;;;;17.13;100.00;64766.31;5073358;28;20291;-59
2023/06/29 05:35:52;;;;;;;9.93;8.88;;;;;;;17.28;100.00;64782.81;5073280;28;20285;-56
2023/06/29 05:38:18;;;;;;;11.57;9.27;;;;;;;17.85;100.00;64845.66;5072984;28;20244;-60
2023/06/29 05:40:43;;;;;;;11.32;8.52;;;;;;;17.99;100.00;64863.09;5071315;28;20193;-56
2023/06/29 05:43:09;;;;;;;11.60;8.65;;;;;;;18.30;100.00;64894.72;5072458;28;20716;-57
2023/06/29 05:45:36;;;;;;;13.20;9.50;;;;;;;17.89;100.00;64852.63;5072686;28;20173;-59
2023/06/29 05:48:01;;;;;;;10.98;9.27;;;;;;;16.80;100.00;64733.06;5071598;28;20736;-60
2023/06/29 05:50:27;;;;;;;14.55;8.68;;;;;;;16.45;100.00;64697.03;5072453;28;20204;-57
2023/06/29 05:52:52;;;;;;;12.38;9.23;;;;;;;16.79;100.00;64729.94;5071613;28;20220;-56
2023/06/29 05:55:19;;;;;;;12.95;9.90;;;;;;;16.90;100.00;64746.59;5073044;28;20291;-61
2023/06/29 05:57:44;;;;;;;10.82;8.65;;;;;;;17.19;100.00;64773.44;5073453;28;20235;-63
2023/06/29 06:00:12;;;;;;;11.45;8.95;;;;;;;17.36;100.00;64791.63;5073243;28;20197;-60
2023/06/29 06:02:39;;;;;;;10.75;9.05;;;;;;;17.71;100.00;64830.22;5073341;28;20204;-61
2023/06/29 06:05:07;;;;;;;10.60;9.10;;;;;;;17.57;100.00;64815.34;5054948;28;20232;-61
2023/06/29 06:07:34;;;;;;;10.35;8.80;;;;;;;17.30;100.00;64788.13;5072714;28;20205;-60
2023/06/29 06:10:00;;;;;;;11.15;9.13;;;;;;;17.67;100.00;64825.81;5054742;28;20342;-56
2023/06/29 06:12:26;;;;;;;14.10;9.45;;;;;;;16.83;100.00;64733.78;5073151;28;20205;-56
2023/06/29 06:14:51;;;;;;;13.43;9.88;;;;;;;16.66;100.00;64715.63;5072962;28;20724;-56
2023/06/29 06:17:17;;;;;;;12.65;10.48;;;;;;;16.22;100.00;64667.16;5072984;28;20541;-59
2023/06/29 06:19:43;;;;;;;15.02;10.75;;;;;;;16.44;100.00;64690.84;5072760;28;20287;-57
2023/06/29 06:22:08;;;;;;;10.65;9.55;;;;;;;16.94;100.00;64745.38;5072781;28;20200;-56
2023/06/29 06:24:34;;;;;;;11.13;8.32;;;;;;;17.56;100.00;64813.69;5072699;28;20209;-54
2023/06/29 06:27:01;;;;;;;11.20;8.68;;;;;;;17.86;100.00;64846.19;5072943;28;20197;-56
2023/06/29 06:29:27;;;;;;;8.32;7.38;;;;;;;17.62;100.00;64822.84;5072672;28;20208;-56
2023/06/29 06:31:52;;;;;;;9.95;7.38;;;;;;;17.75;100.00;64834.66;5072483;28;20208;-57
2023/06/29 06:34:18;;;;;;;8.23;6.40;;;;;;;17.83;94.46;64842.91;5072539;28;20209;-55
2023/06/29 06:36:45;;;;;;;11.60;7.03;;;;;;;18.07;99.90;64869.38;5072678;28;20193;-60
2023/06/29 06:39:11;;;;;;;9.02;6.60;;;;;;;18.06;100.00;64868.28;5088643;22;20216;-57
2023/06/29 06:41:36;;;;;;;8.93;7.18;;;;;;;18.28;99.66;64893.06;5092575;28;20203;-56
2023/06/29 06:44:02;;;;;;;7.78;6.32;;;;;;;17.91;98.56;64851.72;5092441;28;20719;-56
2023/06/29 06:46:27;;;;;;;8.05;7.25;;;;;;;18.06;97.43;64868.28;5092475;28;20225;-59
2023/06/29 06:48:53;;;;;;;9.50;7.18;;;;;;;17.85;96.51;64847.66;5092712;28;20287;-56
2023/06/29 06:51:18;;;;;;;10.25;7.78;;;;;;;17.93;95.01;64856.47;5092382;28;20212;-59
2023/06/29 06:53:44;;;;;;;7.78;6.97;;;;;;;18.07;98.10;64869.91;5092612;28;20675;-56
2023/06/29 06:56:09;;;;;;;10.80;7.25;;;;;;;18.23;95.61;64890.13;5092416;28;20195;-58
2023/06/29 06:58:35;;;;;;;10.18;6.18;;;;;;;18.52;95.67;64921.56;5092495;28;20232;-61
2023/06/29 07:01:00;;;;;;;8.35;6.78;;;;;;;18.83;95.13;64953.22;5092160;28;20200;-59
2023/06/29 07:03:26;;;;;;;9.55;7.13;;;;;;;18.89;91.72;64961.81;5092235;28;20207;-57
2023/06/29 07:05:55;;;;;;;9.63;6.72;;;;;;;19.16;93.41;64992.19;5092470;28;20286;-55
2023/06/29 07:08:21;;;;;;;7.57;6.28;;;;;;;19.40;92.15;65015.59;5092336;28;20226;-57
2023/06/29 07:10:46;;;;;;;7.05;6.05;;;;;;;19.25;88.34;64999.56;5092220;28;20277;-57
2023/06/29 07:13:12;;;;;;;10.38;7.28;;;;;;;19.03;86.91;64975.28;5092224;28;20216;-58
2023/06/29 07:15:37;;;;;;;8.13;6.65;;;;;;;19.05;90.50;64977.47;5092319;28;20212;-60
2023/06/29 07:18:03;;;;;;;7.28;6.03;;;;;;;19.18;92.21;64994.41;5091987;28;20196;-64
2023/06/29 07:20:29;;;;;;;6.60;5.78;;;;;;;19.34;92.22;65008.41;5090940;28;20204;-57
2023/06/29 07:22:54;;;;;;;8.25;6.25;;;;;;;19.46;88.38;65021.66;5091991;28;20216;-57
2023/06/29 07:25:20;;;;;;;7.00;6.30;;;;;;;19.37;90.64;65014.84;5091897;28;20204;-58
2023/06/29 07:27:45;;;;;;;10.57;6.47;;;;;;;19.30;90.05;65004.53;5091901;28;20184;-57
2023/06/29 07:30:11;;;;;;;7.10;6.30;;;;;;;19.42;92.08;65017.78;5091484;28;20378;-58
2023/06/29 07:32:37;;;;;;;7.70;5.97;;;;;;;19.31;85.05;65008.19;5074000;28;20244;-56
2023/06/29 07:35:02;;;;;;;7.32;6.57;;;;;;;19.11;87.57;64984.09;5092257;28;20204;-56
2023/06/29 07:37:28;;;;;;;6.65;6.05;;;;;;;19.23;84.06;64996.78;5091835;28;20661;-58
2023/06/29 07:39:53;;;;;;;6.55;5.88;;;;;;;19.41;86.46;65016.16;5091932;28;20216;-56
2023/06/29 07:42:18;;;;;;;9.57;5.88;;;;;;;19.19;84.97;64995.50;5091841;28;20561;-56
2023/06/29 07:44:44;;;;;;;6.60;5.22;;;;;;;19.25;82.33;65004.09;5091451;28;20801;-56
2023/06/29 07:47:09;;;;;;;9.10;5.03;;;;;;;19.26;83.67;65003.22;5091521;28;20196;-56
2023/06/29 07:49:35;;;;;;;5.68;4.50;;;;;;;19.29;82.32;65003.41;5091391;28;20566;-59
2023/06/29 07:52:00;;;;;;;6.32;4.65;;;;;;;18.99;78.91;64975.97;5073552;28;20253;-57
2023/06/29 07:54:27;;;;;;;4.88;3.88;;;;;;;18.98;80.05;64972.31;5091604;28;20226;-60
2023/06/29 07:56:52;;;;;;;7.82;5.00;;;;;;;19.09;84.86;64981.34;5073464;28;20275;-62
2023/06/29 07:59:18;;;;;;;6.78;4.55;;;;;;;19.35;81.24;65006.97;5091709;28;20311;-57
2023/06/29 08:01:48;;;;;;;4.30;3.85;;;;;;;19.54;82.91;65033.59;5073123;28;20261;-62
2023/06/29 08:04:13;;;;;;;5.60;3.90;;;;;;;19.69;83.53;65047.06;5091572;28;20291;-57
2023/06/29 08:06:42;;;;;;;6.03;5.10;;;;;;;19.55;78.49;65029.03;5091463;28;20279;-57
2023/06/29 08:09:08;;;;;;;7.95;4.22;;;;;;;19.55;78.01;65032.16;5091327;28;20208;-55
2023/06/29 08:11:33;;;;;;;5.00;4.50;;;;;;;19.39;78.87;65013.94;5091391;28;20279;-59
2023/06/29 08:13:58;;;;;;;5.05;4.07;;;;;;;19.52;80.72;65028.28;5091256;28;20212;-56
2023/06/29 08:16:24;;;;;;;5.40;4.55;;;;;;;19.38;80.76;65013.38;5091237;28;20196;-55
2023/06/29 08:18:49;;;;;;;4.90;3.97;;;;;;;19.52;78.46;65028.84;5091390;28;20201;-57
2023/06/29 08:21:15;;;;;;;5.35;4.22;;;;;;;19.64;81.55;65042.09;5091205;28;20269;-58
2023/06/29 08:23:40;;;;;;;4.63;3.70;;;;;;;19.75;82.87;65056.25;5091056;28;20192;-60
2023/06/29 08:26:05;;;;;;;6.07;4.28;;;;;;;19.74;80.86;65053.13;5091036;28;20203;-56
2023/06/29 08:28:31;;;;;;;7.47;4.80;;;;;;;19.65;81.54;65042.66;5091105;28;20208;-56
2023/06/29 08:30:56;;;;;;;4.43;4.03;;;;;;;19.84;81.02;65064.16;5090619;28;20219;-59
2023/06/29 08:33:23;;;;;;;4.70;3.75;;;;;;;19.96;81.48;65077.41;5090865;28;20231;-58
2023/06/29 08:35:50;;;;;;;8.02;4.45;;;;;;;20.04;74.75;65088.81;5091176;28;20228;-61
2023/06/29 08:38:16;;;;;;;5.97;3.90;;;;;;;20.00;78.11;65081.28;5090932;28;20223;-57
2023/06/29 08:40:45;;;;;;;6.60;3.95;;;;;;;19.86;77.83;65063.81;5090744;28;20208;-57
2023/06/29 08:43:11;;;;;;;4.65;3.53;;;;;;;19.79;77.60;65058.66;5090631;28;20291;-57
2023/06/29 08:45:37;;;;;;;3.83;2.97;;;;;;;20.03;75.65;65085.16;5090807;28;20192;-58
2023/06/29 08:48:03;;;;;;;7.90;3.50;;;;;;;20.25;80.60;65108.38;5090780;28;20215;-57
2023/06/29 08:50:30;;;;;;;3.53;3.15;;;;;;;20.60;79.90;65147.06;5089396;28;20689;-55
2023/06/29 08:52:57;;;;;;;5.45;3.28;;;;;;;20.66;77.64;65151.13;5090741;28;20203;-60
2023/06/29 08:55:23;;;;;;;4.15;3.72;;;;;;;20.34;77.53;65118.88;5090520;28;20219;-59
2023/06/29 08:57:49;;;;;;;3.50;2.97;;;;;;;20.43;79.12;65128.25;5090578;28;20200;-61
2023/06/29 09:00:15;;;;;;;5.40;4.13;;;;;;;20.74;72.58;65162.53;5090547;28;20235;-56
2023/06/29 09:02:41;;;;;;;4.28;3.78;;;;;;;20.48;74.95;65134.34;5090500;28;20621;-59
2023/06/29 09:05:07;;;;;;;5.63;4.15;;;;;;;20.02;76.11;65083.50;5090655;28;20292;-55
2023/06/29 09:07:34;;;;;;;5.22;4.57;;;;;;;20.14;78.50;65096.22;5089633;28;20208;-59
2023/06/29 09:10:00;;;;;;;5.75;4.07;;;;;;;20.40;78.57;65124.97;5070547;28;20303;-59
2023/06/29 09:12:27;;;;;;;5.38;3.90;;;;;;;20.71;76.79;65157.19;5090024;28;20279;-57
2023/06/29 09:14:53;;;;;;;4.80;3.55;;;;;;;21.08;74.72;65199.59;5090552;28;20658;-56
2023/06/29 09:17:21;;;;;;;5.05;3.92;;;;;;;21.15;77.37;65210.44;5090460;28;20287;-61
2023/06/29 09:19:54;;;;;;;4.38;3.92;;;;;;;21.29;75.37;65222.81;5088676;28;20248;-61
2023/06/29 09:22:21;;;;;;;6.40;4.20;;;;;;;21.01;73.79;65192.38;5090349;28;20204;-57
2023/06/29 09:24:47;;;;;;;4.97;3.20;;;;;;;20.98;75.53;65185.94;5090673;28;20212;-57
2023/06/29 09:27:12;;;;;;;6.35;3.45;;;;;;;20.88;70.53;65176.00;5090064;28;20587;-54
2023/06/29 09:29:38;;;;;;;5.90;3.40;;;;;;;21.14;74.92;65206.78;5090278;28;20212;-57
2023/06/29 09:32:04;;;;;;;3.90;3.53;;;;;;;21.13;68.61;65205.13;5090455;28;20208;-55
2023/06/29 09:34:29;;;;;;;3.70;3.40;;;;;;;20.98;69.61;65188.50;5090038;28;20212;-56
2023/06/29 09:36:55;;;;;;;6.95;3.17;;;;;;;20.62;71.74;65149.81;5090001;28;20219;-56
2023/06/29 09:39:21;;;;;;;3.33;3.00;;;;;;;20.86;73.95;65175.78;5090020;28;20208;-56
2023/06/29 09:41:50;;;;;;;4.05;3.05;;;;;;;20.98;69.40;65189.06;5090067;28;20223;-56
2023/06/29 09:44:19;;;;;;;6.82;3.17;;;;;;;20.98;70.17;65189.06;5093314;28;20243;-56
2023/06/29 09:46:48;;;;;;;3.22;2.90;;;;;;;20.96;66.59;65188.84;5093554;28;20212;-57
2023/06/29 09:49:14;;;;;;;2.53;2.33;;;;;;;20.82;70.44;65171.38;5093519;28;20208;-60
2023/06/29 09:51:40;;;;;;;2.80;2.47;;;;;;;20.97;71.59;65187.41;5093460;28;20743;-54
2023/06/29 09:54:10;;;;;;;4.30;3.13;;;;;;;20.93;73.76;65183.53;5093467;28;20200;-57
2023/06/29 09:56:37;;;;;;;2.85;2.65;;;;;;;20.77;66.90;65166.41;5093182;28;20275;-56
2023/06/29 09:59:02;;;;;;;4.05;3.05;;;;;;;21.20;70.34;65213.41;5093525;28;20227;-58
2023/06/29 10:01:31;;;;;;;4.15;2.63;;;;;;;21.67;69.98;65262.81;5075362;28;20549;-60
2023/06/29 10:03:57;;;;;;;2.90;2.60;;;;;;;21.43;67.54;65235.72;5093306;28;20589;-57
2023/06/29 10:06:31;;;;;;;4.10;3.00;;;;;;;21.41;70.30;65236.63;5074973;28;20592;-55
2023/06/29 10:08:58;;;;;;;9.95;3.10;;;;;;;21.16;67.92;65208.44;5093392;28;20707;-60
2023/06/29 10:11:29;;;;;;;2.92;2.63;;;;;;;21.78;68.76;65279.56;5093104;28;20685;-57
2023/06/29 10:14:00;;;;;;;3.40;2.67;;;;;;;22.23;69.82;65326.28;5093541;28;20215;-56
2023/06/29 10:16:29;;;;;;;3.42;2.90;;;;;;;22.19;64.93;65322.41;5092694;28;20203;-59
2023/06/29 10:19:01;;;;;;;4.90;3.00;;;;;;;22.34;68.76;65338.44;5092208;28;20208;-59
2023/06/29 10:21:27;;;;;;;4.25;2.38;;;;;;;21.78;61.67;65274.44;5092947;28;20194;-58
2023/06/29 10:23:54;;;;;;;4.70;3.03;;;;;;;21.58;63.86;65255.44;5093095;28;20212;-58
2023/06/29 10:26:20;;;;;;;6.00;2.90;;;;;;;21.86;65.79;65285.31;5092888;28;20582;-59
2023/06/29 10:28:46;;;;;;;2.58;2.38;;;;;;;22.52;67.19;65358.91;5091016;28;20280;-59
2023/06/29 10:31:17;;;;;;;4.38;2.72;;;;;;;22.03;63.94;65304.13;5092674;28;20606;-57
2023/06/29 10:33:46;;;;;;;5.13;2.70;;;;;;;21.15;62.67;65207.88;5092848;28;20200;-55
2023/06/29 10:36:15;;;;;;;2.97;2.53;;;;;;;21.36;60.98;65231.09;5092587;28;20207;-56
2023/06/29 10:38:41;;;;;;;3.53;2.90;;;;;;;21.88;61.77;65284.97;5092843;28;20211;-57
2023/06/29 10:41:07;;;;;;;7.03;3.10;;;;;;;22.31;61.85;65332.56;5092442;28;20200;-58
2023/06/29 10:43:55;;;;;;;2.80;2.10;;;;;;;22.84;62.33;65391.25;5093077;28;20817;-63
2023/06/29 10:46:42;;;;;;;3.92;2.53;;;;;;;22.32;60.96;65334.22;5092501;28;20258;-65
2023/06/29 10:49:20;;;;;;;2.30;2.10;;;;;;;22.94;63.64;65404.34;5092529;28;20215;-58
2023/06/29 10:51:53;;;;;;;3.13;2.70;;;;;;;22.25;60.51;65328.47;5092559;28;20306;-58
2023/06/29 10:54:25;;;;;;;4.07;2.40;;;;;;;22.11;58.05;65308.41;5092090;28;20258;-59
2023/06/29 10:57:00;;;;;;;2.63;2.17;;;;;;;22.32;58.42;65333.66;5092413;28;20212;-60
2023/06/29 10:59:29;;;;;;;3.25;2.90;;;;;;;21.76;62.57;65274.78;5092773;28;20216;-58
2023/06/29 11:01:55;;;;;;;3.20;2.63;;;;;;;22.75;64.30;65381.28;5092531;28;20219;-56
2023/06/29 11:04:24;;;;;;;3.60;2.38;;;;;;;22.66;59.55;65370.78;5092127;28;20239;-56
2023/06/29 11:06:50;;;;;;;2.75;1.92;;;;;;;22.81;54.61;65390.50;5092415;28;20203;-55
2023/06/29 11:09:16;;;;;;;3.90;2.60;;;;;;;22.65;57.91;65372.78;5074134;28;20208;-57
2023/06/29 11:11:47;;;;;;;3.95;2.70;;;;;;;22.04;57.21;65305.78;5092076;28;20345;-58
2023/06/29 11:14:13;;;;;;;2.30;2.10;;;;;;;21.77;57.55;65273.88;5092196;28;20212;-58
2023/06/29 11:16:41;;;;;;;2.72;2.10;;;;;;;22.27;52.44;65328.13;5092101;28;20200;-59
2023/06/29 11:19:07;;;;;;;2.70;2.15;;;;;;;22.18;57.14;65318.19;5074345;28;20290;-57
2023/06/29 11:21:33;;;;;;;3.72;2.20;;;;;;;21.80;55.58;65281.22;5091972;28;20658;-59
2023/06/29 11:23:58;;;;;;;5.05;2.10;;;;;;;21.03;54.89;65192.03;5092168;28;20219;-57